This is the latest recevied weather packets stored in our database for station/object nz4d-1. If no packets are shown the sender has not sent any weather packets the latest 10 day(s).
| Time | Temp. | Humidity | Pressure | Rain* | Wind** | Luminosity | Snow |
|---|---|---|---|---|---|---|---|
| 1777394405 | 18.33° C | 61% | 1020.1 hPa | 0 mm | - | - | - |
| 1777392005 | 17.22° C | 61% | 1021.4 hPa | 0 mm | - | - | - |
| 1777390806 | 17.22° C | 61% | 1022.2 hPa | 0 mm | - | - | - |
| 1777389606 | 17.22° C | 58% | 1023 hPa | 0 mm | - | - | - |
| 1777381806 | 11.67° C | 85% | 1024.9 hPa | 0 mm | - | - | - |
| 1777380605 | 10° C | 93% | 1025.2 hPa | 0 mm | - | - | - |
| 1777380005 | 9.44° C | 96% | 1025 hPa | 0 mm | - | - | - |
| 1777374605 | 5° C | 93% | 1022.9 hPa | 0 mm | - | - | - |
| 1777373407 | 5° C | 93% | 1022.6 hPa | 0 mm | - | - | - |
| 1777372805 | 5° C | 93% | 1022.8 hPa | 0 mm | - | - | - |
| 1777369206 | 5° C | 91% | 1022.5 hPa | 0 mm | - | - | - |
| 1777368005 | 5° C | 91% | 1022.7 hPa | 0 mm | - | - | - |
| 1777357804 | 6.67° C | 87% | 1023.3 hPa | 0 mm | - | - | - |
| 1777352404 | 8.33° C | 83% | 1024.6 hPa | 0 mm | - | - | - |
| 1777350005 | 9.44° C | 81% | 1024.8 hPa | 0 mm | - | - | - |
| 1777349405 | 9.44° C | 80% | 1024.6 hPa | 0 mm | - | - | - |
| 1777345804 | 11.11° C | 76% | 1024.7 hPa | 0 mm | - | - | - |
| 1777344006 | 12.22° C | 72% | 1025 hPa | 0 mm | - | - | - |
| 1777343404 | 12.22° C | 71% | 1025.2 hPa | 0 mm | - | - | - |
| 1777342805 | 12.78° C | 70% | 1025.3 hPa | 0 mm | - | - | - |
| 1777339805 | 13.89° C | 67% | 1024.6 hPa | 0 mm | - | - | - |
| 1777335004 | 16.11° C | 64% | 1023.4 hPa | 0 mm | - | - | - |
| 1777330804 | 17.22° C | 55% | 1022.5 hPa | 0 mm | - | - | - |
| 1777327204 | 18.33° C | 61% | 1022.5 hPa | 0 mm | - | - | - |
| 1777326604 | 18.33° C | 61% | 1022.5 hPa | 0 mm | - | - | - |
* Rain latest hour (hover to see other rain measurements)
** Current wind speed in m/s (hover to see current wind gust speed)